Flight Track Log - Related Links

Times and Time Zones

All times are in EDT time to prevent confusion due to time zone crossing. See the JBU33 flight status page for this flight to view local times or setup timezone preferences in your user account.

Time Position Orientation Groundspeed Altitude Reporting Facility
EDT Latitude Longitude Course Direction KTS MPH feet Rate Location/Type
Tue 02:42:07 PM 44.2975 -73.0144 196° South 258 297 9,100  Level Boston Center
Tue 02:43:00 PM 43.9912 -73.3252 194° South  Level FlightAware Approximate
Tue 02:43:07 PM 44.2183 -73.0050 175° South 264 304 11,200  Level Boston Center
Tue 02:44:00 PM 43.9113 -73.3522 196° South  Level FlightAware Approximate
Tue 02:44:07 PM 44.1289 -72.9606 160° South 318 366 13,000  Level Boston Center
Tue 02:45:00 PM 43.8322 -73.3839 196° South  Level FlightAware Approximate
Tue 02:45:07 PM 44.0333 -72.9108 159° South 364 419 15,700  Level Boston Center
Tue 02:46:00 PM 43.7531 -73.4156 196° South  Level FlightAware Approximate
Tue 02:46:07 PM 43.9356 -72.8667 162° South 369 425 17,800  Level Boston Center
Tue 02:47:00 PM 43.6741 -73.4472 196° South  Level FlightAware Approximate
Tue 02:47:07 PM 43.8311 -72.9006 193° South 369 425 19,700  Level Boston Center
Tue 02:48:07 PM 43.7267 -72.9458 197° South 377 434 21,300 1,750 Climbing Boston Center
Tue 02:49:07 PM 43.6308 -72.9908 199° South 401 461 23,200 1,350 Climbing Boston Center
Tue 02:50:07 PM 43.5097 -73.0411 197° South 406 467 24,000 400 Climbing Boston Center
Tue 02:51:07 PM 43.4197 -73.0803 198° South 416 479 24,000  Level Boston Center
Tue 02:52:07 PM 43.3028 -73.1333 198° South 416 479 24,000  Level Boston Center
Tue 02:53:07 PM 43.1900 -73.1833 198° South 416 479 24,000  Level Boston Center
Tue 02:54:07 PM 43.0814 -73.2303 198° South 422 486 24,000 650 Level Boston Center
Tue 02:55:07 PM 42.9664 -73.2800 198° South 427 491 25,300 1,000 Climbing Boston Center
Tue 02:56:07 PM 42.8556 -73.3267 197° South 427 491 26,000 350 Climbing Boston Center
Tue 02:57:07 PM 42.7447 -73.3758 198° South 427 491 26,000  Level Boston Center
Tue 02:58:07 PM 42.6169 -73.4275 197° South 427 491 26,000  Level Boston Center
Tue 02:59:07 PM 42.5042 -73.4764 198° South 427 491 26,000  Level Boston Center
Tue 03:00:07 PM 42.3911 -73.5281 199° South 427 491 26,000  Level Boston Center
Tue 03:01:07 PM 42.2800 -73.5739 197° South 427 491 26,000  Level Boston Center
Tue 03:02:07 PM 42.1711 -73.6333 202° Southwest 422 486 26,000  Level Boston Center
Tue 03:03:07 PM 42.0578 -73.7011 204° Southwest 434 499 26,000 -255 Level Boston Center
Tue 03:05:15 PM 41.8322 -73.8222 202° Southwest 475 547 25,200 -415 Descending New York Center
Tue 03:06:15 PM 41.7244 -73.8811 202° Southwest 450 518 24,700 -450 Descending New York Center
Tue 03:07:15 PM 41.6167 -73.9400 202° Southwest 430 495 24,300 -800 Descending New York Center
Tue 03:08:15 PM 41.5133 -73.9958 202° Southwest 416 479 23,100 -1,934 Descending New York Center
Tue 03:09:16 PM 41.4097 -74.0517 202° Southwest 416 479 20,400 -1,537 Descending New York Center
Tue 03:10:16 PM 41.3181 -74.1247 211° Southwest 402 463 20,000 -200 Descending New York Center
Tue 03:11:16 PM 41.2208 -74.1778 202° Southwest 391 450 20,000 -303 Level New York Center
Tue 03:12:15 PM 41.1086 -74.1636 175° South 383 441 19,400 -504 Descending New York Center
Tue 03:13:15 PM 40.9947 -74.1469 174° South 397 457 19,000 -198 Descending New York Center
Tue 03:14:16 PM 40.9028 -74.0792 151° Southeast 372 428 19,000 -744 Level New York Center
Tue 03:15:16 PM 40.8514 -73.9808 125° Southeast 347 399 17,500 -1,866 Descending New York Center
Tue 03:16:15 PM 40.7919 -73.8628 124° Southeast 352 405 15,300 -1,966 Descending New York Center
Tue 03:17:15 PM 40.7422 -73.7731 126° Southeast 357 411 13,600 -1,091 Descending New York Center
Tue 03:18:16 PM 40.6781 -73.6717 130° Southeast 345 397 13,100 -942 Descending New York Center
Tue 03:19:16 PM 40.5975 -73.6519 169° South 312 359 11,700 -1,550 Descending New York Center
Tue 03:20:16 PM 40.5081 -73.6372 173° South 304 350 10,000 -1,636 Descending New York Center
Tue 03:21:17 PM 40.4364 -73.6697 199° South 283 326 8,400 -1,500 Descending New York Center
Tue 03:22:16 PM 40.3811 -73.7192 214° Southwest 283 326 7,000 -1,600 Descending New York Center
Tue 03:23:17 PM 40.3764 -73.8222 267° West 249 287 5,200 -1,613 Descending New York Center
Tue 03:24:15 PM 40.3972 -73.8997 289° West 247 284 3,800 -1,109 Descending New York Center
Tue 03:25:16 PM 40.4494 -73.9700 314° West 247 284 3,000 -393 Descending New York Center
Tue 03:26:17 PM 40.5183 -73.9678 North 235 270 3,000 -135 Level New York Center
Tue 03:27:29 PM 40.6000 -73.9167 25° Northeast 219 252 2,700 -636 Descending New York TRACON
Tue 03:28:29 PM 40.6500 -73.8667 37° Northeast 222 255 1,600 -1,000 Descending New York TRACON
Tue 03:29:29 PM 40.6667 -73.8167 66° East 166 191 700 -900 Descending New York TRACON

Login

Don't have an account? Register now (free) for customized features, flight alerts, and more!